createdAt,value
2018-08-10T00:06:19.244Z,19.4
2018-08-10T00:20:20.107Z,19.3
2018-08-10T00:26:20.527Z,19.1
2018-08-10T00:31:20.811Z,19
2018-08-10T00:39:21.300Z,18.9
2018-08-10T00:46:21.757Z,19
2018-08-10T00:52:22.099Z,19.1
2018-08-10T01:04:22.823Z,19
2018-08-10T01:10:23.186Z,18.9
2018-08-10T01:11:23.298Z,19
2018-08-10T01:12:23.344Z,18.9
2018-08-10T01:24:24.051Z,18.8
2018-08-10T01:30:24.648Z,18.6
2018-08-10T01:35:24.768Z,18.5
2018-08-10T01:38:24.916Z,18.4
2018-08-10T01:43:25.226Z,18.3
2018-08-10T01:48:25.590Z,18.1
2018-08-10T01:56:32.058Z,18
2018-08-10T02:00:26.282Z,17.9
2018-08-10T02:03:26.489Z,17.8
2018-08-10T02:04:26.583Z,17.9
2018-08-10T02:05:26.619Z,17.8
2018-08-10T02:11:26.989Z,17.6
2018-08-10T02:15:27.208Z,17.5
2018-08-10T02:19:27.479Z,17.4
2018-08-10T02:22:27.632Z,17.2
2018-08-10T02:28:27.994Z,17.1
2018-08-10T02:34:28.383Z,17
2018-08-10T02:43:28.933Z,16.9
2018-08-10T02:48:29.220Z,16.8
2018-08-10T02:56:29.746Z,16.6
2018-08-10T03:01:30.061Z,16.5
2018-08-10T03:09:30.562Z,16.4
2018-08-10T03:17:31.006Z,16.3
2018-08-10T03:19:31.158Z,16.4
2018-08-10T03:25:31.546Z,16.5
2018-08-10T03:31:31.876Z,16.6
2018-08-10T03:32:31.940Z,16.5
2018-08-10T03:34:32.060Z,16.6
2018-08-10T03:35:32.158Z,16.5
2018-08-10T03:37:32.241Z,16.6
2018-08-10T03:48:32.949Z,16.5
2018-08-10T03:57:33.504Z,16.4
2018-08-10T04:12:34.457Z,16.5
2018-08-10T04:18:34.791Z,16.6
2018-08-10T04:20:34.893Z,16.8
2018-08-10T04:23:35.082Z,16.9
2018-08-10T04:28:35.399Z,17
2018-08-10T04:34:35.813Z,17.1
2018-08-10T04:38:36.162Z,17.2
2018-08-10T04:41:36.229Z,17.4
2018-08-10T04:45:36.470Z,17.5
2018-08-10T04:51:36.804Z,17.4
2018-08-10T05:08:38.020Z,17.5
2018-08-10T05:14:38.453Z,17.6
2018-08-10T05:19:38.833Z,17.8
2018-08-10T05:25:39.113Z,17.9
2018-08-10T05:30:39.391Z,18
2018-08-10T05:31:39.491Z,18.1
2018-08-10T05:33:39.613Z,18.3
2018-08-10T05:36:39.797Z,18.4
2018-08-10T05:41:40.067Z,18.5
2018-08-10T05:45:40.325Z,18.6
2018-08-10T05:49:40.548Z,18.8
2018-08-10T05:52:40.854Z,18.9
2018-08-10T05:55:40.915Z,19
2018-08-10T05:59:41.160Z,19.1
2018-08-10T06:02:41.362Z,19.3
2018-08-10T06:03:41.598Z,19.4
2018-08-10T06:05:41.597Z,19.5
2018-08-10T06:19:42.541Z,19.6
2018-08-10T06:25:42.773Z,19.8
2018-08-10T06:32:43.226Z,19.9
2018-08-10T06:38:43.628Z,20
2018-08-10T06:40:43.728Z,19.9
2018-08-10T06:48:44.199Z,19.8
2018-08-10T06:51:44.423Z,19.6
2018-08-10T06:52:44.453Z,19.5
2018-08-10T06:53:44.524Z,19.4
2018-08-10T06:54:44.632Z,19.3
2018-08-10T06:56:44.736Z,19.1
2018-08-10T06:57:44.776Z,19
2018-08-10T07:00:45.065Z,18.9
2018-08-10T07:03:45.105Z,19
2018-08-10T07:05:45.301Z,19.1
2018-08-10T07:06:45.294Z,19.3
2018-08-10T07:12:45.677Z,19.4
2018-08-10T07:13:45.780Z,19.5
2018-08-10T07:14:45.790Z,19.6
2018-08-10T07:16:45.942Z,19.8
2018-08-10T07:17:45.973Z,19.9
2018-08-10T07:18:46.072Z,20
2018-08-10T07:19:46.096Z,20.1
2018-08-10T07:20:46.151Z,20.3
2018-08-10T07:22:46.326Z,20.4
2018-08-10T07:23:46.396Z,20.5
2018-08-10T07:24:46.435Z,20.6
2018-08-10T07:26:46.533Z,20.8
2018-08-10T07:27:46.628Z,20.9
2018-08-10T07:28:46.677Z,21
2018-08-10T07:29:46.723Z,21.1
2018-08-10T07:31:46.852Z,21.2
2018-08-10T07:32:46.890Z,21.1
2018-08-10T07:37:47.247Z,21
2018-08-10T07:42:47.580Z,21.1
2018-08-10T07:43:47.618Z,21.2
2018-08-10T07:45:47.753Z,21.4
2018-08-10T07:46:47.794Z,21.5
2018-08-10T07:47:47.819Z,21.6
2018-08-10T07:48:47.930Z,21.9
2018-08-10T07:49:47.998Z,22.1
2018-08-10T07:50:48.077Z,22.2
2018-08-10T07:51:48.104Z,22.5
2018-08-10T07:52:48.124Z,22.6
2018-08-10T07:53:48.227Z,22.8
2018-08-10T07:54:48.288Z,23
2018-08-10T07:55:48.350Z,23.3
2018-08-10T07:56:48.409Z,23.4
2018-08-10T07:57:48.474Z,23.9
2018-08-10T07:59:48.611Z,24
2018-08-10T08:00:48.669Z,24.5
2018-08-10T08:01:48.725Z,25
2018-08-10T08:02:48.756Z,25.3
2018-08-10T08:03:48.820Z,25.5
2018-08-10T08:04:48.873Z,25.6
2018-08-10T08:05:48.944Z,25.5
2018-08-10T08:06:49.016Z,25.8
2018-08-10T08:07:49.094Z,25.9
2018-08-10T08:08:49.161Z,25.8
2018-08-10T08:09:49.193Z,25.6
2018-08-10T08:11:49.326Z,25.4
2018-08-10T08:12:49.424Z,24.9
2018-08-10T08:13:49.539Z,24.4
2018-08-10T08:14:49.531Z,24
2018-08-10T08:15:49.592Z,23.6
2018-08-10T08:16:49.615Z,23.4
2018-08-10T08:17:49.698Z,23.3
2018-08-10T08:18:49.740Z,23.1
2018-08-10T08:20:49.852Z,23.4
2018-08-10T08:21:49.913Z,23.7
2018-08-10T08:22:50.009Z,24.3
2018-08-10T08:23:50.080Z,24.6
2018-08-10T08:24:50.097Z,25.1
2018-08-10T08:25:50.208Z,25.6
2018-08-10T08:26:50.265Z,26.2
2018-08-10T08:27:50.342Z,26.6
2018-08-10T08:28:50.396Z,26.8
2018-08-10T08:29:50.440Z,27.5
2018-08-10T08:30:50.555Z,27.6
2018-08-10T08:31:50.575Z,27.4
2018-08-10T08:32:50.638Z,27.2
2018-08-10T08:33:50.731Z,27.1
2018-08-10T08:34:51.040Z,26.9
2018-08-10T08:35:50.816Z,26.6
2018-08-10T08:36:50.911Z,26.9
2018-08-10T08:37:50.967Z,26.8
2018-08-10T08:38:51.009Z,26.2
2018-08-10T08:39:51.061Z,25.8
2018-08-10T08:40:51.128Z,26.5
2018-08-10T08:41:51.190Z,28.7
2018-08-10T08:42:51.252Z,30.1
2018-08-10T08:43:51.275Z,31.1
2018-08-10T08:44:51.349Z,32.7
2018-08-10T08:45:51.704Z,33.2
2018-08-10T08:46:51.466Z,31.8
2018-08-10T08:47:51.528Z,31.4
2018-08-10T08:48:51.602Z,30.4
2018-08-10T08:49:51.637Z,29.4
2018-08-10T08:50:51.711Z,28.6
2018-08-10T08:51:51.776Z,29.5
2018-08-10T08:52:51.824Z,31.1
2018-08-10T08:53:51.974Z,31.6
2018-08-10T08:54:51.949Z,30.4
2018-08-10T08:55:52.010Z,31.5
2018-08-10T08:56:52.068Z,33
2018-08-10T08:57:52.159Z,31.8
2018-08-10T08:58:52.247Z,32.4
2018-08-10T08:59:52.292Z,33.7
2018-08-10T09:00:52.337Z,34.5
2018-08-10T09:01:52.515Z,35.5
2018-08-10T09:02:52.570Z,36.4
2018-08-10T09:03:53.748Z,37.1
2018-08-10T09:04:52.583Z,37.7
2018-08-10T09:05:52.665Z,38.5
2018-08-10T09:06:52.704Z,39
2018-08-10T09:07:52.756Z,39.4
2018-08-10T09:08:52.810Z,39.9
2018-08-10T09:09:52.876Z,40.2
2018-08-10T09:10:52.955Z,40.5
2018-08-10T09:11:52.994Z,40.9
2018-08-10T09:12:53.062Z,41
2018-08-10T09:13:53.119Z,41.1
2018-08-10T09:14:53.197Z,41.2
2018-08-10T09:16:53.359Z,41.6
2018-08-10T09:17:53.429Z,42
2018-08-10T09:18:53.555Z,42.2
2018-08-10T09:19:53.539Z,42
2018-08-10T09:20:53.618Z,41.1
2018-08-10T09:21:53.654Z,41.5
2018-08-10T09:22:53.681Z,41.9
2018-08-10T09:23:53.799Z,42
2018-08-10T09:24:53.842Z,41.2
2018-08-10T09:25:53.895Z,41.6
2018-08-10T09:26:53.969Z,41.9
2018-08-10T09:27:54.048Z,41.1
2018-08-10T09:28:54.152Z,40.6
2018-08-10T09:29:54.113Z,41.2
2018-08-10T09:30:54.214Z,41.5
2018-08-10T09:31:54.243Z,41
2018-08-10T09:32:54.347Z,41.5
2018-08-10T09:33:54.396Z,39.4
2018-08-10T09:34:54.425Z,37.9
2018-08-10T09:35:54.482Z,37
2018-08-10T09:36:54.592Z,36.1
2018-08-10T09:37:54.710Z,35
2018-08-10T09:38:54.679Z,35.9
2018-08-10T09:39:54.725Z,37
2018-08-10T09:40:54.789Z,38.2
2018-08-10T09:41:55.104Z,39.4
2018-08-10T09:42:54.971Z,40.2
2018-08-10T09:43:55.014Z,40.8
2018-08-10T09:44:55.032Z,41.4
2018-08-10T09:45:55.166Z,41.6
2018-08-10T09:46:55.306Z,41.4
2018-08-10T09:47:55.306Z,39.4
2018-08-10T09:48:55.317Z,40.2
2018-08-10T09:49:55.443Z,41
2018-08-10T09:50:55.428Z,41.9
2018-08-10T09:51:56.085Z,42.5
2018-08-10T09:52:55.566Z,43.3
2018-08-10T09:53:55.615Z,43.7
2018-08-10T09:54:55.733Z,44.1
2018-08-10T09:55:55.714Z,42.4
2018-08-10T09:56:56.041Z,40.1
2018-08-10T09:57:55.843Z,39
2018-08-10T09:58:55.908Z,38
2018-08-10T09:59:56.120Z,36.5
2018-08-10T10:00:56.042Z,35.6
2018-08-10T10:01:56.618Z,35.1
2018-08-10T10:03:56.224Z,36.9
2018-08-10T10:04:56.296Z,35.4
2018-08-10T10:05:56.426Z,34.1
2018-08-10T10:06:56.544Z,33.2
2018-08-10T10:07:56.505Z,34.7
2018-08-10T10:08:56.573Z,34.4
2018-08-10T10:09:56.627Z,34
2018-08-10T10:11:56.865Z,35.6
2018-08-10T10:12:56.841Z,37
2018-08-10T10:13:56.844Z,35.4
2018-08-10T10:14:56.935Z,35.7
2018-08-10T10:15:56.992Z,35.6
2018-08-10T10:16:57.172Z,35.2
2018-08-10T10:17:57.103Z,37
2018-08-10T10:18:57.187Z,38.5
2018-08-10T10:19:57.282Z,38.2
2018-08-10T10:20:57.346Z,37.4
2018-08-10T10:21:57.521Z,36.2
2018-08-10T10:22:57.428Z,37.5
2018-08-10T10:23:57.457Z,36.7
2018-08-10T10:24:57.564Z,36
2018-08-10T10:25:57.611Z,36.4
2018-08-10T10:26:57.668Z,35.5
2018-08-10T10:27:57.696Z,34.5
2018-08-10T10:28:57.795Z,36.1
2018-08-10T10:30:57.875Z,34.9
2018-08-10T10:31:57.935Z,34.4
2018-08-10T10:32:58.013Z,33.5
2018-08-10T10:33:58.104Z,32.6
2018-08-10T10:34:58.123Z,32
2018-08-10T10:35:58.198Z,31.5
2018-08-10T10:36:58.728Z,30.9
2018-08-10T10:37:58.362Z,30.5
2018-08-10T10:38:58.387Z,30.1
2018-08-10T10:39:58.446Z,29.9
2018-08-10T10:40:58.554Z,29.6
2018-08-10T10:41:58.603Z,29.5
2018-08-10T10:42:58.697Z,29.3
2018-08-10T10:43:58.701Z,30.8
2018-08-10T10:44:58.747Z,30.9
2018-08-10T10:45:58.834Z,31.9
2018-08-10T10:46:58.865Z,32
2018-08-10T10:47:58.928Z,31.1
2018-08-10T10:48:58.989Z,30.5
2018-08-10T10:49:59.094Z,30.1
2018-08-10T10:50:59.233Z,29.8
2018-08-10T10:51:59.170Z,29.4
2018-08-10T10:52:59.232Z,29
2018-08-10T10:53:59.325Z,28.7
2018-08-10T10:54:59.385Z,28.6
2018-08-10T10:55:59.444Z,28.5
2018-08-10T10:56:59.804Z,28.4
2018-08-10T10:57:59.596Z,28.3
2018-08-10T10:58:59.641Z,28.1
2018-08-10T11:00:59.768Z,28.7
2018-08-10T11:01:59.858Z,31.5
2018-08-10T11:02:59.898Z,34
2018-08-10T11:03:59.953Z,36.4
2018-08-10T11:05:00.057Z,38.2
2018-08-10T11:06:00.094Z,38.1
2018-08-10T11:07:00.154Z,39.2
2018-08-10T11:08:02.394Z,38.1
2018-08-10T11:09:00.933Z,36.9
2018-08-10T11:10:01.572Z,35.7
2018-08-10T11:11:00.946Z,37.2
2018-08-10T11:12:01.269Z,39
2018-08-10T11:13:01.777Z,40.4
2018-08-10T11:14:01.810Z,39.1
2018-08-10T11:15:01.717Z,38.4
2018-08-10T11:16:01.660Z,37.9
2018-08-10T11:17:00.908Z,36.6
2018-08-10T11:18:01.382Z,37
2018-08-10T11:19:01.137Z,37.7
2018-08-10T11:20:01.856Z,36.5
2018-08-10T11:21:02.723Z,38.5
2018-08-10T11:22:01.647Z,39.9
2018-08-10T11:23:01.086Z,37.9
2018-08-10T11:24:01.156Z,36.5
2018-08-10T11:25:01.410Z,35.9
2018-08-10T11:26:01.747Z,35.4
2018-08-10T11:27:01.812Z,37.5
2018-08-10T11:28:01.917Z,38.5
2018-08-10T11:29:01.610Z,39.6
2018-08-10T11:30:01.819Z,40.5
2018-08-10T11:31:01.741Z,39.2
2018-08-10T11:32:02.351Z,37.7
2018-08-10T11:33:03.342Z,36.5
2018-08-10T11:34:03.886Z,35.4
2018-08-10T11:35:03.951Z,37.2
2018-08-10T11:36:04.019Z,39.1
2018-08-10T11:37:04.055Z,40.6
2018-08-10T11:38:04.116Z,41.7
2018-08-10T11:39:04.177Z,42.7
2018-08-10T11:40:04.301Z,43.6
2018-08-10T11:41:04.357Z,44.4
2018-08-10T11:42:04.398Z,45
2018-08-10T11:43:04.463Z,45.5
2018-08-10T11:44:04.559Z,46
2018-08-10T11:45:04.674Z,46.4
2018-08-10T11:46:04.654Z,46.6
2018-08-10T11:47:04.714Z,46.7
2018-08-10T11:50:04.927Z,46.6
2018-08-10T11:51:04.934Z,46.5
2018-08-10T11:53:05.053Z,43.5
2018-08-10T11:54:05.133Z,41
2018-08-10T11:55:05.408Z,40.8
2018-08-10T11:56:05.237Z,40.1
2018-08-10T11:57:05.310Z,41.5
2018-08-10T11:58:05.381Z,42.5
2018-08-10T11:59:05.444Z,43.1
2018-08-10T12:00:05.590Z,43.5
2018-08-10T12:01:05.604Z,43.9
2018-08-10T12:02:05.656Z,44.1
2018-08-10T12:03:05.705Z,44.4
2018-08-10T12:04:05.812Z,44.6
2018-08-10T12:05:05.825Z,44.7
2018-08-10T12:06:06.150Z,44.9
2018-08-10T12:07:05.955Z,45.1
2018-08-10T12:08:06.000Z,45.4
2018-08-10T12:09:06.076Z,44.7
2018-08-10T12:10:06.184Z,44.4
2018-08-10T12:11:06.196Z,44.2
2018-08-10T12:12:06.268Z,43.6
2018-08-10T12:13:06.368Z,42.5
2018-08-10T12:14:06.401Z,41.5
2018-08-10T12:15:06.466Z,41.7
2018-08-10T12:16:06.508Z,42
2018-08-10T12:17:06.544Z,41.7
2018-08-10T12:18:06.606Z,41
2018-08-10T12:19:06.721Z,42.1
2018-08-10T12:20:06.736Z,42.9
2018-08-10T12:21:06.790Z,43.6
2018-08-10T12:22:06.851Z,42.7
2018-08-10T12:23:06.901Z,43.7
2018-08-10T12:24:06.998Z,41.9
2018-08-10T12:25:07.025Z,39.7
2018-08-10T12:26:07.134Z,38
2018-08-10T12:27:07.498Z,38.6
2018-08-10T12:28:07.209Z,39.2
2018-08-10T12:29:07.324Z,37.6
2018-08-10T12:30:07.465Z,36.4
2018-08-10T12:31:07.433Z,35.4
2018-08-10T12:32:07.468Z,35
2018-08-10T12:33:07.587Z,34.1
2018-08-10T12:34:07.588Z,33.4
2018-08-10T12:35:07.651Z,32.6
2018-08-10T12:36:08.233Z,33
2018-08-10T12:37:07.778Z,32.2
2018-08-10T12:38:07.896Z,31.5
2018-08-10T12:39:07.912Z,30.8
2018-08-10T12:40:07.953Z,30.1
2018-08-10T12:41:08.016Z,30.3
2018-08-10T12:42:08.085Z,33.2
2018-08-10T12:43:08.257Z,35.4
2018-08-10T12:44:08.202Z,37.1
2018-08-10T12:45:08.260Z,38.5
2018-08-10T12:46:08.375Z,39.9
2018-08-10T12:47:08.449Z,40.9
2018-08-10T12:48:08.719Z,41.7
2018-08-10T12:49:09.129Z,42.4
2018-08-10T12:50:08.646Z,43.1
2018-08-10T12:51:08.681Z,43.6
2018-08-10T12:52:08.741Z,44.1
2018-08-10T12:53:08.814Z,44.5
2018-08-10T12:54:08.848Z,45
2018-08-10T12:55:08.921Z,45.2
2018-08-10T12:56:08.988Z,45.6
2018-08-10T12:57:09.133Z,45.8
2018-08-10T12:58:09.197Z,46
2018-08-10T12:59:09.184Z,46.1
2018-08-10T13:00:09.203Z,46.2
2018-08-10T13:01:09.293Z,46.4
2018-08-10T13:02:09.358Z,46.5
2018-08-10T13:04:09.472Z,46.6
2018-08-10T13:06:09.589Z,46.9
2018-08-10T13:07:09.655Z,46.7
2018-08-10T13:08:09.920Z,45
2018-08-10T13:09:09.970Z,43.3
2018-08-10T13:10:10.025Z,41.5
2018-08-10T13:11:10.093Z,40.1
2018-08-10T13:12:10.198Z,38.5
2018-08-10T13:13:10.247Z,37.1
2018-08-10T13:14:10.271Z,36.1
2018-08-10T13:15:10.359Z,37.7
2018-08-10T13:16:10.450Z,39.5
2018-08-10T13:17:10.529Z,38.7
2018-08-10T13:19:10.590Z,39.6
2018-08-10T13:20:10.652Z,39.9
2018-08-10T13:21:10.730Z,38.4
2018-08-10T13:22:10.783Z,37.2
2018-08-10T13:23:10.916Z,36.4
2018-08-10T13:24:10.903Z,35.5
2018-08-10T13:25:11.029Z,34.7
2018-08-10T13:26:11.029Z,34.1
2018-08-10T13:27:11.090Z,33.5
2018-08-10T13:28:11.136Z,33
2018-08-10T13:29:11.592Z,32.5
2018-08-10T13:30:11.294Z,32.1
2018-08-10T13:31:11.326Z,31.8
2018-08-10T13:32:11.385Z,31.6
2018-08-10T13:33:11.476Z,31.8
2018-08-10T13:34:11.734Z,31.5
2018-08-10T13:35:11.789Z,31.2
2018-08-10T13:36:12.482Z,33.6
2018-08-10T13:37:12.506Z,36
2018-08-10T13:38:12.635Z,37.6
2018-08-10T13:39:12.619Z,39
2018-08-10T13:40:12.697Z,40
2018-08-10T13:41:12.742Z,38.2
2018-08-10T13:42:13.133Z,36.9
2018-08-10T13:43:12.861Z,35.7
2018-08-10T13:44:12.950Z,34.9
2018-08-10T13:45:12.992Z,34.1
2018-08-10T13:46:13.058Z,33.6
2018-08-10T13:47:13.562Z,33.4
2018-08-10T13:48:13.782Z,34.6
2018-08-10T13:49:14.066Z,37
2018-08-10T13:50:14.087Z,38.5
2018-08-10T13:51:14.155Z,40.1
2018-08-10T13:52:14.472Z,41.4
2018-08-10T13:53:14.530Z,42.2
2018-08-10T13:54:14.653Z,43.1
2018-08-10T13:55:14.667Z,43.7
2018-08-10T13:56:14.744Z,44.2
2018-08-10T13:57:14.788Z,44.6
2018-08-10T13:59:14.865Z,45.1
2018-08-10T14:00:14.943Z,45.5
2018-08-10T14:01:14.988Z,45.9
2018-08-10T14:02:15.092Z,46.2
2018-08-10T14:03:15.160Z,44.1
2018-08-10T14:06:15.469Z,44.6
2018-08-10T14:07:15.399Z,44.9
2018-08-10T14:08:15.421Z,45.1
2018-08-10T14:09:15.554Z,45.4
2018-08-10T14:10:15.583Z,45.5
2018-08-10T14:11:15.611Z,45.8
2018-08-10T14:12:15.652Z,45.9
2018-08-10T14:13:15.740Z,46
2018-08-10T14:14:15.792Z,45.9
2018-08-10T14:15:15.835Z,45.8
2018-08-10T14:16:15.896Z,45.5
2018-08-10T14:17:15.963Z,45.4
2018-08-10T14:18:16.024Z,45.1
2018-08-10T14:20:16.142Z,45
2018-08-10T14:21:16.239Z,44.9
2018-08-10T14:25:16.521Z,45
2018-08-10T14:26:16.572Z,45.1
2018-08-10T14:29:16.730Z,45
2018-08-10T14:30:16.773Z,44.9
2018-08-10T14:36:17.131Z,44.7
2018-08-10T14:37:17.200Z,44.9
2018-08-10T14:38:17.317Z,44.7
2018-08-10T14:41:17.764Z,44.6
2018-08-10T14:43:17.630Z,44.5
2018-08-10T14:45:17.764Z,44.4
2018-08-10T14:46:18.060Z,44.5
2018-08-10T14:48:17.904Z,44.6
2018-08-10T14:50:18.034Z,44.9
2018-08-10T14:51:18.595Z,45
2018-08-10T14:52:18.146Z,43.6
2018-08-10T14:53:18.180Z,43.3
2018-08-10T14:54:18.268Z,43.6
2018-08-10T14:55:18.362Z,43.1
2018-08-10T14:56:18.898Z,43.5
2018-08-10T14:57:18.498Z,43.9
2018-08-10T14:58:18.674Z,44.1
2018-08-10T14:59:18.689Z,44.5
2018-08-10T15:00:18.835Z,44.9
2018-08-10T15:01:19.021Z,44.4
2018-08-10T15:02:18.969Z,43.3
2018-08-10T15:03:19.064Z,42.5
2018-08-10T15:04:19.667Z,43.3
2018-08-10T15:05:20.354Z,43.9
2018-08-10T15:06:20.922Z,44.2
2018-08-10T15:07:20.442Z,44.7
2018-08-10T15:08:20.526Z,45.1
2018-08-10T15:09:20.565Z,45.4
2018-08-10T15:10:20.655Z,45.5
2018-08-10T15:11:20.817Z,45.8
2018-08-10T15:14:21.461Z,45.6
2018-08-10T15:15:21.583Z,45.5
2018-08-10T15:17:21.678Z,45.4
2018-08-10T15:18:21.781Z,44.7
2018-08-10T15:19:21.959Z,44.6
2018-08-10T15:20:22.057Z,44.5
2018-08-10T15:22:22.147Z,44.4
2018-08-10T15:23:22.234Z,44.2
2018-08-10T15:25:22.374Z,44.4
2018-08-10T15:28:22.520Z,44.2
2018-08-10T15:30:22.659Z,44
2018-08-10T15:31:22.730Z,43.7
2018-08-10T15:32:22.807Z,43.4
2018-08-10T15:33:22.844Z,43.3
2018-08-10T15:35:22.947Z,43.1
2018-08-10T15:36:23.006Z,43
2018-08-10T15:37:23.067Z,41.9
2018-08-10T15:38:23.169Z,39.6
2018-08-10T15:39:23.195Z,38.2
2018-08-10T15:40:23.255Z,38.4
2018-08-10T15:41:23.329Z,38.9
2018-08-10T15:42:23.444Z,38
2018-08-10T15:43:23.499Z,38.4
2018-08-10T15:44:23.507Z,38.9
2018-08-10T15:45:23.627Z,39.2
2018-08-10T15:47:23.713Z,38.5
2018-08-10T15:48:23.754Z,37.6
2018-08-10T15:49:23.844Z,36.5
2018-08-10T15:50:23.827Z,35.5
2018-08-10T15:51:23.885Z,34.1
2018-08-10T15:52:23.955Z,33
2018-08-10T15:54:24.121Z,32.9
2018-08-10T15:55:24.153Z,32.4
2018-08-10T15:56:24.331Z,32.2
2018-08-10T15:58:24.362Z,32
2018-08-10T15:59:24.419Z,32.6
2018-08-10T16:00:24.512Z,32.1
2018-08-10T16:01:24.533Z,31.2
2018-08-10T16:02:24.581Z,30.8
2018-08-10T16:03:24.677Z,30
2018-08-10T16:04:24.840Z,29.5
2018-08-10T16:05:24.895Z,29.1
2018-08-10T16:07:25.037Z,29.5
2018-08-10T16:08:25.134Z,30.4
2018-08-10T16:09:25.181Z,31.8
2018-08-10T16:10:25.235Z,33.1
2018-08-10T16:11:25.269Z,34.2
2018-08-10T16:12:25.396Z,33.4
2018-08-10T16:14:25.488Z,32.4
2018-08-10T16:15:25.567Z,31.6
2018-08-10T16:16:25.622Z,32.6
2018-08-10T16:17:25.651Z,32.4
2018-08-10T16:18:25.723Z,32.7
2018-08-10T16:19:25.760Z,33.6
2018-08-10T16:20:25.840Z,34.6
2018-08-10T16:21:26.085Z,35.5
2018-08-10T16:22:25.950Z,36.1
2018-08-10T16:23:26.014Z,36.7
2018-08-10T16:24:26.103Z,37.2
2018-08-10T16:25:26.178Z,37.6
2018-08-10T16:26:26.241Z,38
2018-08-10T16:27:26.322Z,36.5
2018-08-10T16:28:26.400Z,35
2018-08-10T16:29:26.412Z,33.9
2018-08-10T16:30:26.527Z,32.7
2018-08-10T16:31:26.548Z,32
2018-08-10T16:32:26.612Z,31.4
2018-08-10T16:33:26.672Z,30.6
2018-08-10T16:34:26.734Z,30
2018-08-10T16:35:26.790Z,30.1
2018-08-10T16:36:26.856Z,29.4
2018-08-10T16:37:26.927Z,28.9
2018-08-10T16:38:27.022Z,28.4
2018-08-10T16:39:27.044Z,28.3
2018-08-10T16:40:27.104Z,28
2018-08-10T16:41:27.211Z,27.9
2018-08-10T16:42:27.320Z,29
2018-08-10T16:43:27.423Z,30.4
2018-08-10T16:44:27.571Z,31.5
2018-08-10T16:45:27.549Z,32.5
2018-08-10T16:46:27.561Z,33
2018-08-10T16:47:27.641Z,32.7
2018-08-10T16:48:27.704Z,31.6
2018-08-10T16:49:27.758Z,32.5
2018-08-10T16:50:27.885Z,33.4
2018-08-10T16:51:27.877Z,34
2018-08-10T16:52:27.940Z,34.5
2018-08-10T16:53:28.024Z,34.9
2018-08-10T16:54:28.065Z,35.2
2018-08-10T16:55:28.182Z,35.5
2018-08-10T16:56:28.193Z,35.7
2018-08-10T16:57:28.277Z,35.9
2018-08-10T16:58:28.336Z,36
2018-08-10T17:00:28.469Z,36.1
2018-08-10T17:01:28.499Z,36.2
2018-08-10T17:03:28.614Z,35.9
2018-08-10T17:04:28.724Z,34.1
2018-08-10T17:05:28.765Z,32.6
2018-08-10T17:06:28.850Z,31.5
2018-08-10T17:07:28.859Z,30.6
2018-08-10T17:08:28.952Z,29.8
2018-08-10T17:09:28.991Z,29
2018-08-10T17:10:29.043Z,28.4
2018-08-10T17:11:29.111Z,27.8
2018-08-10T17:12:29.207Z,27.2
2018-08-10T17:13:29.257Z,26.9
2018-08-10T17:14:29.326Z,26.4
2018-08-10T17:15:29.397Z,26
2018-08-10T17:16:29.478Z,25.6
2018-08-10T17:17:29.517Z,25.4
2018-08-10T17:18:29.596Z,25
2018-08-10T17:19:29.642Z,24.7
2018-08-10T17:20:29.713Z,24.5
2018-08-10T17:21:29.764Z,24.3
2018-08-10T17:22:29.850Z,24.1
2018-08-10T17:23:29.882Z,24
2018-08-10T17:24:29.923Z,23.7
2018-08-10T17:25:30.039Z,23.6
2018-08-10T17:26:30.064Z,23.4
2018-08-10T17:27:30.148Z,23.3
2018-08-10T17:28:30.211Z,23.1
2018-08-10T17:29:30.260Z,23
2018-08-10T17:30:30.350Z,22.9
2018-08-10T17:31:30.710Z,22.8
2018-08-10T17:32:30.783Z,22.6
2018-08-10T17:34:31.272Z,22.5
2018-08-10T17:35:31.308Z,22.4
2018-08-10T17:37:31.465Z,22.2
2018-08-10T17:38:31.513Z,22.1
2018-08-10T17:39:31.598Z,22
2018-08-10T17:40:31.773Z,21.9
2018-08-10T17:42:32.094Z,21.8
2018-08-10T17:43:32.785Z,21.6
2018-08-10T17:45:32.912Z,21.5
2018-08-10T17:46:32.968Z,21.4
2018-08-10T17:47:33.026Z,21.2
2018-08-10T17:49:33.131Z,21.1
2018-08-10T17:51:33.271Z,21
2018-08-10T17:52:33.335Z,20.9
2018-08-10T17:54:33.452Z,20.8
2018-08-10T17:55:33.492Z,20.6
2018-08-10T17:56:33.784Z,20.5
2018-08-10T17:58:34.690Z,20.4
2018-08-10T18:00:34.707Z,20.3
2018-08-10T18:02:35.180Z,20.1
2018-08-10T18:03:35.245Z,20
2018-08-10T18:05:36.055Z,19.9
2018-08-10T18:08:38.873Z,19.6
2018-08-10T18:10:39.544Z,19.5
2018-08-10T18:11:39.859Z,19.4
2018-08-10T18:13:39.947Z,19.3
2018-08-10T18:15:40.054Z,19.1
2018-08-10T18:16:40.117Z,19
2018-08-10T18:17:40.195Z,18.9
2018-08-10T18:19:40.323Z,18.8
2018-08-10T18:20:41.016Z,18.6
2018-08-10T18:22:42.016Z,18.5
2018-08-10T18:23:42.064Z,18.4
2018-08-10T18:25:42.223Z,18.3
2018-08-10T18:26:42.270Z,18.1
2018-08-10T18:28:42.405Z,18
2018-08-10T18:29:42.459Z,17.9
2018-08-10T18:31:42.528Z,17.8
2018-08-10T18:33:42.675Z,17.6
2018-08-10T18:34:43.491Z,17.5
2018-08-10T18:36:44.757Z,17.4
2018-08-10T18:37:44.860Z,17.2
2018-08-10T18:39:45.327Z,17.1
2018-08-10T18:41:45.487Z,17
2018-08-10T18:42:45.553Z,16.9
2018-08-10T18:44:45.856Z,16.8
2018-08-10T18:45:45.906Z,16.6
2018-08-10T18:47:46.051Z,16.5
2018-08-10T18:49:46.579Z,16.4
2018-08-10T18:51:46.695Z,16.3
2018-08-10T18:52:46.749Z,16.1
2018-08-10T18:54:47.191Z,16
2018-08-10T18:56:47.341Z,15.9
2018-08-10T18:57:47.430Z,15.8
2018-08-10T18:58:47.489Z,15.6
2018-08-10T18:59:47.591Z,15.5
2018-08-10T19:01:47.680Z,15.4
2018-08-10T19:02:47.698Z,15.3
2018-08-10T19:03:47.833Z,15.1
2018-08-10T19:04:47.877Z,15
2018-08-10T19:06:47.993Z,14.9
2018-08-10T19:08:48.124Z,14.7
2018-08-10T19:10:48.231Z,14.6
2018-08-10T19:13:48.433Z,14.5
2018-08-10T19:25:49.110Z,14.4
2018-08-10T19:32:49.569Z,14.3
2018-08-10T19:38:50.525Z,14.1
2018-08-10T19:43:51.470Z,14
2018-08-10T19:47:51.743Z,13.9
2018-08-10T19:50:51.864Z,13.8
2018-08-10T19:52:51.992Z,13.6
2018-08-10T19:55:52.180Z,13.5
2018-08-10T19:57:52.326Z,13.4
2018-08-10T20:00:52.541Z,13.3
2018-08-10T20:02:52.645Z,13.1
2018-08-10T20:05:52.794Z,13
2018-08-10T20:07:52.917Z,12.9
2018-08-10T20:11:53.200Z,12.8
2018-08-10T20:15:53.518Z,12.6
2018-08-10T20:19:53.676Z,12.5
2018-08-10T20:20:53.744Z,12.6
2018-08-10T20:21:53.894Z,12.5
2018-08-10T20:28:54.268Z,12.4
2018-08-10T20:30:54.379Z,12.5
2018-08-10T20:31:54.403Z,12.4
2018-08-10T20:44:55.228Z,12.2
2018-08-10T20:49:55.573Z,12.1
2018-08-10T20:52:55.684Z,12
2018-08-10T20:56:55.929Z,11.9
2018-08-10T21:01:56.420Z,11.8
2018-08-10T21:16:57.339Z,11.6
2018-08-10T21:17:57.429Z,11.8
2018-08-10T21:18:57.529Z,11.6
2018-08-10T21:29:58.167Z,11.5
2018-08-10T21:38:58.684Z,11.4
2018-08-10T21:39:58.732Z,11.5
2018-08-10T21:40:58.818Z,11.4
2018-08-10T21:49:59.391Z,11.3
2018-08-10T22:02:00.092Z,11.4
2018-08-10T22:09:01.536Z,11.3
2018-08-10T22:24:01.551Z,11.4
2018-08-10T22:25:02.611Z,11.3
2018-08-10T22:27:01.860Z,11.4
2018-08-10T22:44:03.183Z,11.5
2018-08-10T22:46:03.344Z,11.4
2018-08-10T22:47:03.441Z,11.5
2018-08-10T22:53:03.769Z,11.4
2018-08-10T22:58:04.066Z,11.3
2018-08-10T23:01:04.223Z,11.1
2018-08-10T23:09:04.726Z,11
2018-08-10T23:23:05.689Z,10.9
2018-08-10T23:30:06.046Z,10.8
2018-08-10T23:37:06.475Z,10.6
2018-08-10T23:40:06.639Z,10.8
2018-08-10T23:47:07.054Z,10.9
2018-08-10T23:52:07.389Z,11
